WXM80 ListenWXM80 Stop

You find our weather info also at:

UK Metoffice

WeatherCloud

Weather Underground

Northeastern Weather Network

AWEKAS

Citizen Weather Observer Program (CWOP)

HAMweather, WeatherForYou, PWS Weather


Weather Underground History page Text

Daily Summary for November 9, 2017 Units:  English    Metric   Both
« Previous Day
Next Day »
Daily Weekly Monthly Yearly Custom
  High: Low: Average:
Temperature: 54.0 °F 36.0 °F 46.2 °F
Dew Point: 49.4 °F 33.9 °F 42.1 °F
Humidity: 96 % 69 % 86 %
Wind Speed: 7.2 mph 0.0 mph 0.8 mph
Wind Gust: 12.0 mph - -
Wind:- - ESE
Pressure: 30.23 in 29.92 in -
Precipitation: 0.12 in    
Historical Graphs
 
 
Tabular Data for November 9, 2017
Time Temperature Dew Point Pressure Wind Wind Speed Wind Gust Humidity Rainfall Rate (Hourly)
00:02 40.3 °F 37.6 °F 30.23 in NE 0.2 mph 2.3 mph 90 % 0.01 in
00:07 40.3 °F 37.6 °F 30.23 in Calm     90 % 0.01 in
00:12 40.3 °F 37.6 °F 30.23 in NE 0.5 mph 2.3 mph 90 % 0.01 in
00:17 40.2 °F 37.5 °F 30.23 in NE 0.1 mph   90 % 0.01 in
00:22 40.2 °F 37.5 °F 30.23 in Calm     90 % 0.01 in
00:27 40.2 °F 37.5 °F 30.23 in Calm     90 % 0.00 in
00:33 40.2 °F 37.8 °F 30.23 in Calm     91 % 0.00 in
00:38 40.1 °F 37.7 °F 30.23 in Calm     91 % 0.00 in
00:43 40.1 °F 37.7 °F 30.22 in Calm     91 % 0.00 in
00:48 40.1 °F 37.7 °F 30.22 in Calm     91 % 0.00 in
00:53 40.1 °F 37.7 °F 30.22 in Calm     91 % 0.00 in
00:58 40.0 °F 37.6 °F 30.23 in SE 0.8 mph 1.2 mph 91 % 0.00 in
01:03 40.0 °F 37.6 °F 30.23 in SE 0.1 mph 3.5 mph 91 % 0.01 in
01:08 40.1 °F 37.7 °F 30.22 in Calm   2.3 mph 91 % 0.01 in
01:13 40.0 °F 37.9 °F 30.22 in Calm   2.3 mph 92 % 0.01 in
01:18 40.0 °F 37.9 °F 30.22 in SE 0.2 mph 1.0 mph 92 % 0.01 in
01:23 40.1 °F 38.0 °F 30.22 in SE 1.7 mph 3.5 mph 92 % 0.01 in
01:28 40.1 °F 38.0 °F 30.23 in SE 0.3 mph 1.2 mph 92 % 0.01 in
01:33 40.1 °F 38.0 °F 30.22 in SE 1.6 mph 3.5 mph 92 % 0.01 in
01:38 40.1 °F 38.0 °F 30.22 in ESE 1.8 mph 3.5 mph 92 % 0.01 in
01:43 40.2 °F 37.8 °F 30.22 in SE 0.7 mph 3.5 mph 91 % 0.01 in
01:48 40.2 °F 37.8 °F 30.22 in SSE 1.4 mph 3.5 mph 91 % 0.01 in
01:53 40.2 °F 37.8 °F 30.22 in SE 1.9 mph 3.5 mph 91 % 0.01 in
01:58 40.2 °F 37.8 °F 30.22 in SE 0.1 mph 1.2 mph 91 % 0.00 in
02:03 40.3 °F 37.6 °F 30.23 in Calm   1.2 mph 90 % 0.00 in
02:08 40.3 °F 37.6 °F 30.23 in SE 0.9 mph 2.3 mph 90 % 0.00 in
02:13 40.2 °F 37.5 °F 30.23 in SE 0.4 mph 2.3 mph 90 % 0.00 in
02:18 40.2 °F 37.5 °F 30.23 in Calm   1.2 mph 90 % 0.00 in
02:23 40.2 °F 37.5 °F 30.23 in SE 0.3 mph 2.3 mph 90 % 0.00 in
02:28 40.1 °F 37.4 °F 30.22 in Calm   1.0 mph 90 % 0.00 in
02:33 40.1 °F 37.1 °F 30.22 in SE 0.3 mph 1.2 mph 89 % 0.00 in
02:38 40.0 °F 37.0 °F 30.23 in Calm     89 % 0.00 in
02:43 40.0 °F 37.0 °F 30.22 in Calm     89 % 0.00 in
02:48 39.9 °F 36.9 °F 30.22 in SE 1.2 mph 3.5 mph 89 % 0.01 in
02:53 39.8 °F 36.8 °F 30.22 in SE 0.8 mph 3.0 mph 89 % 0.01 in
02:58 39.7 °F 36.7 °F 30.22 in SE 1.2 mph 3.5 mph 89 % 0.01 in
03:03 39.6 °F 36.6 °F 30.21 in SE 0.7 mph 2.3 mph 89 % 0.01 in
03:08 39.5 °F 36.5 °F 30.22 in SE 0.8 mph 2.3 mph 89 % 0.01 in
03:13 39.4 °F 36.4 °F 30.22 in SE 1.4 mph 3.5 mph 89 % 0.01 in
03:18 39.3 °F 36.3 °F 30.22 in SE 1.3 mph 3.5 mph 89 % 0.01 in
03:23 39.3 °F 36.3 °F 30.22 in SE 1.3 mph 3.5 mph 89 % 0.01 in
03:28 39.2 °F 36.2 °F 30.21 in SE 0.7 mph 3.5 mph 89 % 0.01 in
03:33 39.2 °F 36.2 °F 30.21 in Calm     89 % 0.01 in
03:38 39.1 °F 36.1 °F 30.21 in Calm     89 % 0.01 in
03:43 39.0 °F 36.0 °F 30.21 in Calm     89 % 0.01 in
03:48 38.9 °F 35.9 °F 30.21 in Calm   1.2 mph 89 % 0.00 in
03:53 38.8 °F 35.8 °F 30.22 in Calm     89 % 0.00 in
03:58 38.7 °F 35.7 °F 30.22 in Calm     89 % 0.00 in
04:03 38.6 °F 35.6 °F 30.22 in Calm     89 % 0.00 in
04:08 38.5 °F 35.5 °F 30.22 in Calm     89 % 0.00 in
04:13 38.3 °F 35.6 °F 30.22 in Calm     90 % 0.00 in
04:18 38.2 °F 35.5 °F 30.22 in Calm     90 % 0.00 in
04:23 38.1 °F 35.4 °F 30.22 in Calm     90 % 0.00 in
04:28 38.0 °F 35.3 °F 30.22 in Calm     90 % 0.01 in
04:33 37.9 °F 35.2 °F 30.22 in Calm     90 % 0.01 in
04:38 37.9 °F 35.2 °F 30.22 in Calm     90 % 0.01 in
04:43 37.8 °F 35.1 °F 30.22 in Calm     90 % 0.01 in
04:48 37.7 °F 35.0 °F 30.22 in Calm     90 % 0.01 in
04:54 37.6 °F 34.9 °F 30.22 in Calm     90 % 0.01 in
04:59 37.5 °F 34.8 °F 30.23 in Calm   2.3 mph 90 % 0.01 in
05:04 37.4 °F 34.7 °F 30.23 in Calm   1.2 mph 90 % 0.01 in
05:09 37.3 °F 34.6 °F 30.23 in Calm     90 % 0.01 in
05:14 37.1 °F 34.4 °F 30.23 in Calm     90 % 0.01 in
05:19 37.1 °F 34.7 °F 30.23 in Calm     91 % 0.01 in
05:24 37.0 °F 34.6 °F 30.23 in Calm     91 % 0.01 in
05:29 36.9 °F 34.5 °F 30.23 in Calm     91 % 0.00 in
05:34 36.8 °F 34.4 °F 30.23 in Calm     91 % 0.00 in
05:39 36.8 °F 34.4 °F 30.23 in Calm     91 % 0.00 in
05:44 36.7 °F 34.3 °F 30.23 in Calm     91 % 0.00 in
05:49 36.6 °F 34.2 °F 30.23 in Calm     91 % 0.00 in
05:54 36.5 °F 34.1 °F 30.23 in Calm     91 % 0.00 in
05:59 36.5 °F 34.1 °F 30.23 in Calm     91 % 0.00 in
06:04 36.4 °F 34.0 °F 30.23 in Calm     91 % 0.00 in
06:09 36.3 °F 33.9 °F 30.23 in Calm     91 % 0.00 in
06:14 36.3 °F 33.9 °F 30.23 in Calm     91 % 0.00 in
06:19 36.2 °F 34.1 °F 30.23 in Calm     92 % 0.00 in
06:24 36.1 °F 34.0 °F 30.23 in Calm     92 % 0.00 in
06:30 36.1 °F 34.0 °F 30.23 in Calm     92 % 0.00 in
06:35 36.1 °F 34.0 °F 30.22 in Calm     92 % 0.01 in
06:40 36.0 °F 33.9 °F 30.23 in Calm   1.2 mph 92 % 0.01 in
06:45 36.0 °F 33.9 °F 30.23 in Calm     92 % 0.01 in
06:51 36.1 °F 34.0 °F 30.23 in Calm   2.0 mph 92 % 0.00 in
06:56 36.1 °F 34.0 °F 30.23 in Calm   2.0 mph 92 % 0.00 in
07:01 36.2 °F 34.4 °F 30.23 in Calm     93 % 0.01 in
07:06 36.2 °F 34.4 °F 30.23 in Calm   3.0 mph 93 % 0.00 in
07:11 36.3 °F 34.5 °F 30.22 in Calm   2.0 mph 93 % 0.00 in
07:16 36.4 °F 34.6 °F 30.23 in Calm     93 % 0.01 in
07:21 36.5 °F 34.9 °F 30.22 in Calm   2.0 mph 94 % 0.00 in
07:26 36.7 °F 35.1 °F 30.23 in Calm   3.0 mph 94 % 0.00 in
07:31 37.0 °F 35.4 °F 30.23 in SSE 2.0 mph 5.0 mph 94 % 0.00 in
07:36 37.5 °F 36.2 °F 30.22 in Calm   1.0 mph 95 % 0.00 in
07:41 37.9 °F 36.5 °F 30.22 in Calm   2.0 mph 95 % 0.00 in
07:46 38.4 °F 37.4 °F 30.22 in Calm   2.3 mph 96 % 0.00 in
07:51 39.1 °F 38.1 °F 30.22 in Calm   1.0 mph 96 % 0.00 in
07:56 39.9 °F 38.9 °F 30.22 in Calm   1.0 mph 96 % 0.00 in
08:01 40.7 °F 39.6 °F 30.22 in SSE 0.3 mph 1.2 mph 96 % 0.00 in
08:06 41.4 °F 40.3 °F 30.22 in Calm   1.2 mph 96 % 0.00 in
08:11 41.8 °F 40.7 °F 30.21 in SSE 0.1 mph 1.2 mph 96 % 0.00 in
08:16 42.3 °F 41.2 °F 30.21 in SE 0.5 mph 1.2 mph 96 % 0.00 in
08:21 42.8 °F 41.7 °F 30.21 in SE 0.3 mph 1.2 mph 96 % 0.00 in
08:26 43.3 °F 42.2 °F 30.21 in ESE 0.9 mph 3.5 mph 96 % 0.01 in
08:31 43.9 °F 42.8 °F 30.21 in ENE 0.5 mph 1.2 mph 96 % 0.01 in
08:36 44.6 °F 43.3 °F 30.21 in ENE 1.5 mph 3.5 mph 95 % 0.01 in
08:41 45.6 °F 44.3 °F 30.21 in ENE 1.0 mph 2.3 mph 95 % 0.01 in
08:46 46.5 °F 44.9 °F 30.21 in ENE 0.8 mph 2.3 mph 94 % 0.01 in
08:51 47.4 °F 45.2 °F 30.21 in ENE 3.4 mph 5.8 mph 92 % 0.01 in
08:56 48.2 °F 45.1 °F 30.20 in East 1.8 mph 3.5 mph 89 % 0.01 in
09:01 48.8 °F 45.1 °F 30.20 in East 2.1 mph 4.6 mph 87 % 0.01 in
09:06 49.4 °F 45.1 °F 30.21 in East 2.3 mph 4.6 mph 85 % 0.01 in
09:11 50.0 °F 45.0 °F 30.20 in ENE 3.2 mph 6.9 mph 83 % 0.01 in
09:16 50.4 °F 45.1 °F 30.20 in ENE 7.2 mph 9.2 mph 82 % 0.01 in
09:22 50.2 °F 44.3 °F 30.20 in ENE 2.8 mph 9.2 mph 80 % 0.01 in
09:25 50.0 °F 44.4 °F 30.19 in ENE 2.8 mph 8.1 mph 81 % 0.00 in
09:30 49.6 °F 43.7 °F 30.19 in ENE 3.4 mph 7.0 mph 80 % 0.00 in
09:35 49.7 °F 44.4 °F 30.19 in NE 4.9 mph 6.0 mph 82 % 0.01 in
09:41 50.0 °F 44.7 °F 30.18 in ENE 3.0 mph 9.0 mph 82 % 0.00 in
09:46 50.4 °F 45.5 °F 30.18 in ENE 2.0 mph 10.0 mph 83 % 0.00 in
09:51 50.6 °F 45.3 °F 30.18 in East 1.0 mph 9.0 mph 82 % 0.00 in
09:56 51.2 °F 45.9 °F 30.18 in ENE 3.0 mph 12.0 mph 82 % 0.00 in
10:01 51.9 °F 45.9 °F 30.18 in NE 4.7 mph 6.9 mph 80 % 0.01 in
10:06 52.5 °F 46.5 °F 30.18 in ENE 1.7 mph 4.0 mph 80 % 0.01 in
10:11 53.2 °F 46.5 °F 30.17 in SE 2.0 mph 5.0 mph 78 % 0.01 in
10:16 53.7 °F 45.6 °F 30.18 in East 2.6 mph 5.0 mph 74 % 0.01 in
10:21 53.7 °F 45.2 °F 30.17 in ENE 1.4 mph 4.0 mph 73 % 0.01 in
10:26 53.6 °F 44.4 °F 30.17 in NE 3.2 mph 6.9 mph 71 % 0.01 in
10:31 53.8 °F 45.7 °F 30.16 in ENE 0.5 mph 1.2 mph 74 % 0.01 in
10:36 54.0 °F 45.5 °F 30.16 in ENE 1.9 mph 3.0 mph 73 % 0.01 in
10:41 53.9 °F 44.3 °F 30.16 in ENE 3.0 mph 5.8 mph 70 % 0.01 in
10:46 53.7 °F 44.5 °F 30.16 in ENE 1.5 mph 3.5 mph 71 % 0.01 in
10:51 53.4 °F 43.5 °F 30.16 in ENE 2.4 mph 3.5 mph 69 % 0.01 in
10:56 52.7 °F 42.8 °F 30.16 in ENE 3.0 mph 4.0 mph 69 % 0.01 in
11:01 52.1 °F 43.0 °F 30.15 in NE 1.6 mph 4.6 mph 71 % 0.01 in
11:06 51.7 °F 43.0 °F 30.14 in ENE 2.7 mph 4.0 mph 72 % 0.01 in
11:11 51.5 °F 43.1 °F 30.15 in ENE 0.4 mph 3.5 mph 73 % 0.01 in
11:16 51.5 °F 43.5 °F 30.15 in NNE 2.2 mph 4.6 mph 74 % 0.01 in
11:21 51.4 °F 43.4 °F 30.14 in ENE 1.7 mph 3.5 mph 74 % 0.01 in
11:26 51.4 °F 43.0 °F 30.14 in NNE 3.5 mph 4.0 mph 73 % 0.01 in
11:31 51.3 °F 43.6 °F 30.15 in ENE 1.2 mph 2.0 mph 75 % 0.01 in
11:37 51.3 °F 43.6 °F 30.14 in Calm   2.3 mph 75 % 0.00 in
11:42 51.2 °F 42.8 °F 30.13 in NE 0.3 mph 3.5 mph 73 % 0.00 in
11:47 51.1 °F 43.1 °F 30.12 in NE 0.6 mph 3.0 mph 74 % 0.01 in
11:52 51.1 °F 43.1 °F 30.12 in ENE 1.9 mph 3.5 mph 74 % 0.01 in
11:57 51.0 °F 43.0 °F 30.12 in ENE 1.1 mph 3.5 mph 74 % 0.01 in
12:02 51.0 °F 43.0 °F 30.12 in ENE 2.8 mph 4.0 mph 74 % 0.01 in
12:07 51.0 °F 43.4 °F 30.11 in NE 2.4 mph 3.5 mph 75 % 0.01 in
12:12 51.0 °F 43.0 °F 30.11 in NE 1.8 mph 3.5 mph 74 % 0.01 in
12:17 51.0 °F 43.0 °F 30.11 in ENE 2.7 mph 3.5 mph 74 % 0.01 in
12:22 51.0 °F 43.0 °F 30.11 in ENE 3.3 mph 6.0 mph 74 % 0.01 in
12:27 51.0 °F 43.7 °F 30.10 in ENE 0.3 mph 3.5 mph 76 % 0.01 in
12:32 51.0 °F 43.4 °F 30.10 in ENE 0.3 mph 2.3 mph 75 % 0.01 in
12:37 51.1 °F 43.4 °F 30.11 in ENE 2.6 mph 5.8 mph 75 % 0.01 in
12:42 51.1 °F 43.8 °F 30.10 in ENE 2.6 mph 3.5 mph 76 % 0.01 in
12:47 51.2 °F 43.9 °F 30.10 in ENE 4.0 mph 5.0 mph 76 % 0.00 in
12:52 51.3 °F 43.6 °F 30.09 in NNE 2.0 mph 4.0 mph 75 % 0.00 in
12:57 51.7 °F 44.4 °F 30.10 in ENE 4.6 mph 8.1 mph 76 % 0.01 in
13:02 51.8 °F 44.1 °F 30.09 in ENE 2.1 mph 7.0 mph 75 % 0.01 in
13:07 51.9 °F 44.6 °F 30.09 in ENE 3.2 mph 5.0 mph 76 % 0.01 in
13:13 52.2 °F 44.5 °F 30.08 in NE 1.4 mph 4.6 mph 75 % 0.01 in
13:18 52.4 °F 44.4 °F 30.08 in ENE 2.0 mph 4.6 mph 74 % 0.01 in
13:23 52.4 °F 44.0 °F 30.08 in NE 1.0 mph 2.3 mph 73 % 0.01 in
13:28 52.4 °F 44.0 °F 30.08 in North 0.6 mph 3.5 mph 73 % 0.01 in
13:33 52.4 °F 44.7 °F 30.08 in NNE 4.0 mph 5.8 mph 75 % 0.01 in
13:38 52.4 °F 44.7 °F 30.08 in ENE 1.8 mph 4.0 mph 75 % 0.01 in
13:43 52.4 °F 44.7 °F 30.08 in East 3.2 mph 3.5 mph 75 % 0.01 in
13:48 52.3 °F 44.6 °F 30.08 in ENE 1.0 mph 2.3 mph 75 % 0.01 in
13:53 52.2 °F 44.5 °F 30.07 in ENE 0.9 mph 2.0 mph 75 % 0.01 in
13:58 52.2 °F 44.9 °F 30.08 in ENE 2.9 mph 4.6 mph 76 % 0.00 in
14:03 52.2 °F 44.5 °F 30.07 in NE 1.2 mph 4.6 mph 75 % 0.00 in
14:08 52.1 °F 45.1 °F 30.07 in NNE 2.0 mph 3.5 mph 77 % 0.00 in
14:13 52.1 °F 44.8 °F 30.07 in ENE 2.6 mph 6.9 mph 76 % 0.00 in
14:18 52.1 °F 45.1 °F 30.07 in ENE 3.0 mph 4.0 mph 77 % 0.00 in
14:23 52.1 °F 45.1 °F 30.07 in Calm   2.3 mph 77 % 0.00 in
14:28 52.0 °F 44.7 °F 30.07 in ENE 1.1 mph 3.5 mph 76 % 0.01 in
14:33 52.1 °F 45.1 °F 30.07 in ENE 1.8 mph 3.5 mph 77 % 0.01 in
14:38 52.0 °F 44.7 °F 30.06 in ENE 0.3 mph 3.5 mph 76 % 0.01 in
14:43 51.9 °F 44.6 °F 30.06 in Calm   2.3 mph 76 % 0.01 in
14:48 51.9 °F 45.3 °F 30.06 in ENE 0.7 mph 3.5 mph 78 % 0.01 in
14:54 51.9 °F 45.3 °F 30.06 in ENE 0.5 mph 4.6 mph 78 % 0.01 in
14:59 51.8 °F 44.8 °F 30.06 in ENE 3.1 mph 3.5 mph 77 % 0.01 in
15:04 51.8 °F 45.2 °F 30.06 in East 0.7 mph 3.5 mph 78 % 0.01 in
15:09 51.8 °F 45.5 °F 30.06 in ENE 0.2 mph 1.2 mph 79 % 0.01 in
15:14 51.8 °F 45.2 °F 30.05 in Calm   4.6 mph 78 % 0.01 in
15:19 51.8 °F 45.5 °F 30.05 in NE 0.2 mph 1.2 mph 79 % 0.01 in
15:24 51.8 °F 45.5 °F 30.06 in ENE 1.3 mph 3.5 mph 79 % 0.01 in
15:29 51.8 °F 45.5 °F 30.06 in ENE 0.2 mph 1.2 mph 79 % 0.00 in
15:34 51.7 °F 45.4 °F 30.06 in Calm     79 % 0.00 in
15:39 51.7 °F 45.4 °F 30.06 in ENE 0.8 mph 2.3 mph 79 % 0.00 in
15:44 51.7 °F 45.4 °F 30.06 in Calm     79 % 0.00 in
15:49 51.7 °F 45.7 °F 30.06 in Calm     80 % 0.00 in
15:54 51.6 °F 45.6 °F 30.06 in Calm   1.2 mph 80 % 0.00 in
15:59 51.5 °F 45.5 °F 30.06 in Calm     80 % 0.00 in
16:04 51.5 °F 45.5 °F 30.06 in Calm     80 % 0.00 in
16:09 51.4 °F 45.8 °F 30.06 in Calm   1.2 mph 81 % 0.00 in
16:14 51.4 °F 45.8 °F 30.05 in Calm     81 % 0.01 in
16:19 51.3 °F 45.7 °F 30.05 in Calm     81 % 0.01 in
16:24 51.3 °F 45.7 °F 30.05 in ESE 0.3 mph 2.3 mph 81 % 0.01 in
16:29 51.2 °F 45.6 °F 30.05 in ESE 0.6 mph 2.3 mph 81 % 0.01 in
16:34 51.2 °F 45.6 °F 30.05 in Calm   2.3 mph 81 % 0.01 in
16:39 51.1 °F 45.5 °F 30.04 in Calm   1.2 mph 81 % 0.01 in
16:44 51.0 °F 45.4 °F 30.05 in Calm   1.2 mph 81 % 0.01 in
16:49 50.9 °F 45.3 °F 30.04 in Calm     81 % 0.01 in
16:54 50.8 °F 45.2 °F 30.04 in Calm     81 % 0.01 in
17:00 50.7 °F 45.1 °F 30.04 in ESE 0.2 mph   81 % 0.01 in
17:05 50.6 °F 45.3 °F 30.05 in Calm     82 % 0.01 in
17:10 50.4 °F 45.1 °F 30.05 in Calm     82 % 0.01 in
17:15 50.3 °F 45.0 °F 30.04 in ESE 0.1 mph 1.2 mph 82 % 0.00 in
17:20 50.1 °F 44.8 °F 30.05 in Calm     82 % 0.00 in
17:25 50.0 °F 44.7 °F 30.04 in Calm     82 % 0.00 in
17:30 49.8 °F 44.5 °F 30.05 in Calm     82 % 0.00 in
17:35 49.6 °F 44.6 °F 30.04 in Calm     83 % 0.00 in
17:40 49.4 °F 44.5 °F 30.04 in Calm     83 % 0.00 in
17:45 49.2 °F 44.6 °F 30.04 in ESE 0.6 mph 1.2 mph 84 % 0.00 in
17:50 49.0 °F 44.4 °F 30.04 in Calm     84 % 0.00 in
17:55 48.8 °F 44.5 °F 30.04 in Calm     85 % 0.00 in
18:00 48.7 °F 44.4 °F 30.03 in ESE 0.5 mph 2.3 mph 85 % 0.00 in
18:05 48.5 °F 44.2 °F 30.03 in ESE 0.3 mph 1.2 mph 85 % 0.00 in
18:10 48.4 °F 44.1 °F 30.03 in Calm   1.2 mph 85 % 0.00 in
18:15 48.3 °F 44.3 °F 30.03 in ESE 1.2 mph 2.3 mph 86 % 0.00 in
18:20 48.2 °F 44.5 °F 30.03 in ESE 0.6 mph 3.5 mph 87 % 0.00 in
18:26 48.2 °F 44.8 °F 30.03 in Calm   2.0 mph 88 % 0.00 in
18:31 48.2 °F 44.8 °F 30.02 in SE 1.0 mph 3.0 mph 88 % 0.00 in
18:36 48.1 °F 44.7 °F 30.02 in Calm   3.0 mph 88 % 0.00 in
18:41 48.2 °F 45.1 °F 30.02 in SSE 1.0 mph 3.0 mph 89 % 0.00 in
18:46 48.2 °F 45.1 °F 30.02 in SSE 2.0 mph 5.0 mph 89 % 0.00 in
18:51 48.3 °F 45.2 °F 30.02 in SSE 3.0 mph 5.0 mph 89 % 0.00 in
18:56 48.3 °F 45.2 °F 30.02 in SSE 3.0 mph 6.0 mph 89 % 0.00 in
19:01 48.4 °F 45.3 °F 30.01 in SE 2.5 mph 4.6 mph 89 % 0.00 in
19:06 48.4 °F 45.3 °F 30.01 in SSE 2.3 mph 6.9 mph 89 % 0.00 in
19:11 48.5 °F 45.4 °F 30.01 in SSE 1.5 mph 3.5 mph 89 % 0.01 in
19:16 48.5 °F 45.4 °F 30.01 in SE 2.0 mph 3.5 mph 89 % 0.01 in
19:21 48.6 °F 45.5 °F 30.01 in SE 0.7 mph 2.3 mph 89 % 0.01 in
19:26 48.7 °F 45.6 °F 30.01 in SE 0.5 mph 1.2 mph 89 % 0.01 in
19:31 48.7 °F 45.6 °F 30.01 in SE 0.2 mph 1.2 mph 89 % 0.01 in
19:35 48.7 °F 45.6 °F 30.01 in SE 0.3 mph 2.3 mph 89 % 0.01 in
19:40 48.7 °F 45.6 °F 30.01 in SE 0.5 mph 2.3 mph 89 % 0.01 in
19:45 48.7 °F 45.6 °F 30.00 in SE 1.1 mph 2.3 mph 89 % 0.01 in
19:50 48.8 °F 45.7 °F 30.01 in SE 1.3 mph 3.5 mph 89 % 0.01 in
19:55 48.8 °F 45.7 °F 30.00 in SE 1.4 mph 3.5 mph 89 % 0.01 in
20:00 48.8 °F 45.7 °F 29.99 in SE 2.0 mph 3.5 mph 89 % 0.01 in
20:05 48.8 °F 45.7 °F 30.00 in Calm     89 % 0.01 in
20:10 48.7 °F 45.6 °F 29.99 in SE 0.8 mph 4.0 mph 89 % 0.00 in
20:15 48.7 °F 45.9 °F 29.99 in SE 2.2 mph 3.5 mph 90 % 0.00 in
20:20 48.7 °F 45.9 °F 29.99 in SSE 0.8 mph 3.5 mph 90 % 0.00 in
20:25 48.8 °F 46.0 °F 30.00 in SSE 0.6 mph 3.5 mph 90 % 0.00 in
20:31 48.8 °F 46.0 °F 29.99 in Calm   2.0 mph 90 % 0.00 in
20:36 48.8 °F 46.0 °F 29.99 in Calm     90 % 0.00 in
20:41 48.8 °F 46.0 °F 29.99 in SSE 1.9 mph 2.3 mph 90 % 0.00 in
20:50 49.0 °F 46.2 °F 29.98 in Calm   2.3 mph 90 % 0.00 in
20:56 49.0 °F 46.2 °F 29.98 in Calm   3.0 mph 90 % 0.00 in
21:01 49.0 °F 46.2 °F 29.97 in SSE 0.8 mph 1.2 mph 90 % 0.00 in
21:06 49.1 °F 46.3 °F 29.97 in SSE 0.1 mph 1.2 mph 90 % 0.00 in
21:11 49.1 °F 46.3 °F 29.97 in Calm     90 % 0.00 in
21:16 49.1 °F 46.3 °F 29.97 in Calm     90 % 0.00 in
21:21 49.1 °F 46.3 °F 29.97 in Calm     90 % 0.00 in
21:26 49.1 °F 46.3 °F 29.97 in Calm     90 % 0.00 in
21:31 49.0 °F 46.2 °F 29.97 in Calm     90 % 0.00 in
21:36 48.9 °F 46.1 °F 29.97 in Calm     90 % 0.00 in
21:41 48.8 °F 46.0 °F 29.97 in Calm     90 % 0.00 in
21:46 48.8 °F 46.0 °F 29.96 in Calm     90 % 0.00 in
21:51 48.7 °F 45.9 °F 29.95 in SSE 0.4 mph 2.3 mph 90 % 0.00 in
21:56 48.6 °F 45.8 °F 29.96 in Calm     90 % 0.00 in
22:01 48.5 °F 45.7 °F 29.96 in SSE 0.3 mph 1.2 mph 90 % 0.00 in
22:06 48.4 °F 45.6 °F 29.96 in Calm     90 % 0.00 in
22:11 48.4 °F 45.9 °F 29.96 in Calm     91 % 0.00 in
22:16 48.3 °F 45.8 °F 29.96 in Calm     91 % 0.00 in
22:21 48.2 °F 45.7 °F 29.96 in Calm     91 % 0.00 in
22:26 48.2 °F 45.7 °F 29.95 in Calm     91 % 0.00 in
22:31 48.2 °F 45.7 °F 29.95 in Calm     91 % 0.00 in
22:36 48.1 °F 45.6 °F 29.94 in Calm     91 % 0.00 in
22:41 48.1 °F 45.6 °F 29.94 in Calm     91 % 0.00 in
22:46 48.2 °F 46.0 °F 29.94 in Calm     92 % 0.00 in
22:51 48.3 °F 46.1 °F 29.94 in Calm     92 % 0.00 in
22:56 48.5 °F 46.6 °F 29.94 in Calm     93 % 0.00 in
23:01 48.7 °F 47.1 °F 29.93 in South 0.5 mph 2.3 mph 94 % 0.00 in
23:06 49.0 °F 47.3 °F 29.93 in Calm   1.2 mph 94 % 0.00 in
23:12 49.2 °F 47.5 °F 29.92 in SSW 0.6 mph 3.5 mph 94 % 0.00 in
23:17 49.4 °F 47.7 °F 29.92 in SSW 0.2 mph 2.3 mph 94 % 0.00 in
23:22 49.6 °F 47.9 °F 29.92 in West 0.3 mph 2.3 mph 94 % 0.00 in
23:27 49.9 °F 48.5 °F 29.92 in WSW 0.5 mph 5.8 mph 95 % 0.00 in
23:32 50.1 °F 48.7 °F 29.92 in Calm   3.5 mph 95 % 0.00 in
23:37 50.3 °F 48.6 °F 29.92 in WSW 1.8 mph 5.0 mph 94 % 0.00 in
23:42 50.5 °F 49.1 °F 29.92 in WSW 0.3 mph 2.0 mph 95 % 0.00 in
23:47 50.7 °F 49.0 °F 29.92 in WSW 0.8 mph 4.0 mph 94 % 0.00 in
23:52 50.9 °F 49.2 °F 29.92 in SW 0.8 mph 3.0 mph 94 % 0.00 in
23:57 51.1 °F 49.4 °F 29.92 in WSW 4.5 mph 8.1 mph 94 % 0.00 in
Crab Meadow Weather
Compliments of Weather Underground - 3 mb

Script developed by  Jim McMurry - jmcmurry@mwt.net Adapted for the template by  Wim van der Kuil - Leuven-Template.eu

Weather Terms: Wind Chill Warning - Extreme wind chills of -30°F or colder.